createdAt,value
2022-11-24T00:01:15.986Z,11.30
2022-11-24T00:03:45.123Z,13.15
2022-11-24T00:06:15.654Z,14.15
2022-11-24T00:08:46.555Z,12.55
2022-11-24T00:11:18.103Z,11.73
2022-11-24T00:13:47.470Z,14.23
2022-11-24T00:16:18.197Z,10.98
2022-11-24T00:18:48.788Z,15.63
2022-11-24T00:21:18.838Z,11.65
2022-11-24T00:23:49.094Z,12.73
2022-11-24T00:26:20.833Z,13.70
2022-11-24T00:28:51.194Z,13.38
2022-11-24T00:31:21.417Z,14.77
2022-11-24T00:33:51.690Z,13.67
2022-11-24T00:36:21.435Z,15.00
2022-11-24T00:38:54.260Z,12.73
2022-11-24T00:41:25.102Z,11.95
2022-11-24T00:43:54.201Z,13.13
2022-11-24T00:46:23.832Z,11.52
2022-11-24T00:48:52.983Z,11.90
2022-11-24T00:51:24.006Z,11.77
2022-11-24T00:56:23.513Z,10.05
2022-11-24T00:58:52.533Z,11.95
2022-11-24T01:01:22.857Z,12.88
2022-11-24T01:03:51.699Z,15.25
2022-11-24T01:06:22.560Z,15.55
2022-11-24T01:08:51.669Z,13.48
2022-11-24T01:11:22.343Z,12.30
2022-11-24T01:13:54.984Z,16.00
2022-11-24T01:16:25.539Z,16.63
2022-11-24T01:18:54.715Z,18.05
2022-11-24T01:21:23.761Z,16.60
2022-11-24T01:23:52.519Z,15.57
2022-11-24T01:26:23.278Z,13.27
2022-11-24T01:28:56.084Z,16.70
2022-11-24T01:31:25.938Z,14.95
2022-11-24T01:33:54.805Z,15.85
2022-11-24T01:36:24.347Z,13.27
2022-11-24T01:38:53.584Z,11.80
2022-11-24T01:41:23.659Z,20.23
2022-11-24T01:43:55.357Z,12.40
2022-11-24T01:46:28.099Z,16.42
2022-11-24T01:49:04.287Z,13.60
2022-11-24T01:51:36.095Z,14.70
2022-11-24T01:54:10.125Z,15.77
2022-11-24T01:56:42.260Z,17.08
2022-11-24T01:59:15.009Z,14.80
2022-11-24T02:01:43.906Z,14.77
2022-11-24T02:04:16.336Z,15.90
2022-11-24T02:06:47.783Z,13.13
2022-11-24T02:09:24.722Z,17.88
2022-11-24T02:11:55.286Z,15.85
2022-11-24T02:14:28.068Z,12.63
2022-11-24T02:16:56.844Z,14.27
2022-11-24T02:19:36.310Z,16.73
2022-11-24T02:22:05.965Z,16.80
2022-11-24T02:24:39.978Z,15.52
2022-11-24T02:27:11.441Z,16.30
2022-11-24T02:29:41.631Z,17.83
2022-11-24T02:32:12.875Z,17.52
2022-11-24T02:34:41.763Z,19.50
2022-11-24T02:37:10.393Z,16.25
2022-11-24T02:39:39.092Z,19.75
2022-11-24T02:42:13.128Z,20.13
2022-11-24T02:44:45.098Z,19.15
2022-11-24T02:47:14.596Z,18.00
2022-11-24T02:49:43.280Z,17.27
2022-11-24T02:52:11.816Z,17.73
2022-11-24T02:54:40.457Z,16.90
2022-11-24T02:57:11.197Z,17.75
2022-11-24T02:59:40.086Z,16.95
2022-11-24T03:02:08.669Z,16.15
2022-11-24T03:04:37.449Z,17.98
2022-11-24T03:07:05.998Z,19.05
2022-11-24T03:09:34.718Z,18.50
2022-11-24T03:12:03.302Z,19.48
2022-11-24T03:14:33.815Z,17.75
2022-11-24T03:17:02.774Z,18.08
2022-11-24T03:19:31.331Z,18.33
2022-11-24T03:22:00.011Z,19.50
2022-11-24T03:24:28.617Z,21.30
2022-11-24T03:26:57.167Z,18.73
2022-11-24T03:29:25.940Z,18.08
2022-11-24T03:31:55.929Z,16.75
2022-11-24T03:34:24.596Z,16.17
2022-11-24T03:36:53.206Z,17.55
2022-11-24T03:39:21.887Z,14.55
2022-11-24T03:41:51.677Z,15.88
2022-11-24T03:44:20.410Z,14.52
2022-11-24T03:46:49.136Z,19.15
2022-11-24T03:49:19.540Z,14.85
2022-11-24T03:51:48.203Z,14.02
2022-11-24T03:54:16.769Z,19.08
2022-11-24T03:56:45.381Z,18.63
2022-11-24T03:59:14.074Z,19.38
2022-11-24T04:01:43.163Z,18.02
2022-11-24T04:04:16.686Z,15.70
2022-11-24T04:06:47.268Z,18.70
2022-11-24T04:09:16.286Z,17.25
2022-11-24T04:12:04.788Z,15.18
2022-11-24T04:14:34.085Z,16.92
2022-11-24T04:17:04.489Z,14.55
2022-11-24T04:19:33.947Z,18.10
2022-11-24T04:22:04.467Z,16.77
2022-11-24T04:24:35.109Z,16.90
2022-11-24T04:27:04.313Z,15.65
2022-11-24T04:29:36.189Z,15.38
2022-11-24T04:32:09.155Z,14.27
2022-11-24T04:34:38.231Z,15.68
2022-11-24T04:37:11.503Z,14.07
2022-11-24T04:39:40.553Z,15.45
2022-11-24T04:42:09.737Z,14.23
2022-11-24T04:44:41.797Z,14.43
2022-11-24T04:47:18.552Z,16.70
2022-11-24T04:49:48.871Z,13.73
2022-11-24T04:52:19.921Z,13.60
2022-11-24T04:54:52.236Z,11.93
2022-11-24T04:57:22.557Z,15.45
2022-11-24T04:59:51.670Z,12.32
2022-11-24T05:02:23.585Z,12.65
2022-11-24T05:04:52.701Z,16.75
2022-11-24T05:07:23.175Z,16.60
2022-11-24T05:10:13.625Z,17.85
2022-11-24T05:12:45.859Z,15.48
2022-11-24T05:15:19.066Z,16.08
2022-11-24T05:17:47.950Z,13.82
2022-11-24T05:20:16.766Z,15.23
2022-11-24T05:22:47.278Z,12.85
2022-11-24T05:25:16.583Z,15.88
2022-11-24T05:27:48.917Z,15.90
2022-11-24T05:30:18.102Z,14.43
2022-11-24T05:32:47.005Z,17.10
2022-11-24T05:35:16.583Z,13.63
2022-11-24T05:37:48.958Z,11.77
2022-11-24T05:40:20.844Z,14.68
2022-11-24T05:42:50.312Z,14.55
2022-11-24T05:45:21.733Z,14.68
2022-11-24T05:47:53.585Z,17.00
2022-11-24T05:50:24.661Z,14.07
2022-11-24T05:55:23.701Z,15.13
2022-11-24T05:58:00.179Z,16.08
2022-11-24T06:00:30.280Z,15.48
2022-11-24T06:02:59.412Z,15.05
2022-11-24T06:05:29.939Z,13.00
2022-11-24T06:08:02.743Z,14.18
2022-11-24T06:10:32.004Z,13.68
2022-11-24T06:13:00.946Z,13.68
2022-11-24T06:15:33.325Z,14.52
2022-11-24T06:18:02.639Z,12.02
2022-11-24T06:20:33.079Z,14.70
2022-11-24T06:23:03.684Z,11.20
2022-11-24T06:25:35.404Z,14.57
2022-11-24T06:28:05.761Z,14.52
2022-11-24T06:30:34.760Z,16.77
2022-11-24T06:33:05.961Z,15.07
2022-11-24T06:35:34.940Z,13.77
2022-11-24T06:38:06.361Z,16.73
2022-11-24T06:40:35.281Z,16.05
2022-11-24T06:43:04.200Z,16.90
2022-11-24T06:45:32.829Z,13.73
2022-11-24T06:48:01.393Z,14.65
2022-11-24T06:50:33.564Z,17.80
2022-11-24T06:53:02.468Z,16.92
2022-11-24T06:55:32.447Z,15.13
2022-11-24T06:58:00.898Z,18.00
2022-11-24T07:00:32.368Z,17.88
2022-11-24T07:03:01.363Z,16.05
2022-11-24T07:05:29.928Z,19.77
2022-11-24T07:08:00.518Z,20.00
2022-11-24T07:10:29.235Z,17.00
2022-11-24T07:12:59.412Z,17.13
2022-11-24T07:15:30.130Z,19.17
2022-11-24T07:17:58.731Z,18.65
2022-11-24T07:20:27.312Z,16.35
2022-11-24T07:22:58.112Z,16.88
2022-11-24T07:25:26.973Z,17.20
2022-11-24T07:27:59.591Z,17.98
2022-11-24T07:30:29.237Z,19.55
2022-11-24T07:33:00.995Z,21.95
2022-11-24T07:35:30.357Z,17.65
2022-11-24T07:37:59.793Z,19.25
2022-11-24T07:40:28.954Z,19.88
2022-11-24T07:43:02.012Z,17.88
2022-11-24T07:45:32.345Z,19.70
2022-11-24T07:48:00.931Z,18.13
2022-11-24T07:50:29.394Z,17.20
2022-11-24T07:53:02.913Z,18.70
2022-11-24T07:55:31.573Z,17.20
2022-11-24T07:58:04.695Z,18.23
2022-11-24T08:00:33.390Z,18.80
2022-11-24T08:03:01.835Z,24.65
2022-11-24T08:05:30.534Z,20.05
2022-11-24T08:08:02.097Z,19.60
2022-11-24T08:10:30.851Z,19.80
2022-11-24T08:13:01.855Z,16.65
2022-11-24T08:18:02.955Z,18.08
2022-11-24T08:20:31.535Z,19.65
2022-11-24T08:23:00.953Z,16.55
2022-11-24T08:25:32.613Z,20.05
2022-11-24T08:28:01.291Z,16.35
2022-11-24T08:30:30.217Z,19.35
2022-11-24T08:33:02.391Z,18.42
2022-11-24T08:35:31.092Z,20.05
2022-11-24T08:38:04.504Z,18.40
2022-11-24T08:40:34.134Z,17.45
2022-11-24T08:43:03.069Z,18.08
2022-11-24T08:45:33.353Z,18.35
2022-11-24T08:48:07.462Z,19.92
2022-11-24T08:50:36.415Z,19.75
2022-11-24T08:53:04.970Z,19.52
2022-11-24T08:55:33.578Z,18.20
2022-11-24T08:58:02.134Z,16.50
2022-11-24T09:00:30.800Z,17.45
2022-11-24T09:03:00.120Z,18.67
2022-11-24T09:05:51.348Z,19.50
2022-11-24T09:08:19.021Z,21.85
2022-11-24T09:10:47.560Z,19.73
2022-11-24T09:13:16.098Z,20.58
2022-11-24T09:15:44.673Z,23.35
2022-11-24T09:18:13.255Z,19.45
2022-11-24T09:20:53.276Z,17.98
2022-11-24T09:23:21.835Z,21.58
2022-11-24T09:25:50.435Z,16.35
2022-11-24T09:28:19.046Z,17.02
2022-11-24T09:30:47.553Z,15.55
2022-11-24T09:33:16.294Z,17.25
2022-11-24T09:35:46.392Z,16.30
2022-11-24T09:38:14.953Z,17.87
2022-11-24T09:40:43.489Z,16.85
2022-11-24T09:43:19.575Z,15.98
2022-11-24T09:46:09.093Z,16.60
2022-11-24T09:48:42.256Z,16.03
2022-11-24T09:51:15.572Z,16.25
2022-11-24T09:53:49.648Z,15.90
2022-11-24T09:56:22.232Z,18.08
2022-11-24T09:58:53.019Z,14.23
2022-11-24T10:01:25.726Z,15.30
2022-11-24T10:03:55.073Z,15.07
2022-11-24T10:06:27.696Z,15.88
2022-11-24T10:09:09.837Z,14.18
2022-11-24T10:11:44.747Z,15.23
2022-11-24T10:14:55.387Z,13.63
2022-11-24T10:17:39.969Z,12.27
2022-11-24T10:20:16.574Z,11.90
2022-11-24T10:22:57.134Z,14.68
2022-11-24T10:25:27.993Z,15.43
2022-11-24T10:28:00.576Z,13.85
2022-11-24T10:30:29.493Z,13.32
2022-11-24T10:32:59.712Z,15.27
2022-11-24T10:35:36.415Z,11.70
2022-11-24T10:38:17.932Z,13.63
2022-11-24T10:40:57.007Z,12.45
2022-11-24T10:43:28.361Z,12.73
2022-11-24T10:46:01.129Z,15.38
2022-11-24T10:48:38.758Z,13.13
2022-11-24T10:51:30.870Z,13.60
2022-11-24T10:54:07.333Z,12.98
2022-11-24T10:56:41.551Z,12.52
2022-11-24T10:59:30.910Z,10.20
2022-11-24T11:02:00.204Z,12.10
2022-11-24T11:04:30.712Z,13.38
2022-11-24T11:07:18.908Z,12.52
2022-11-24T11:09:50.277Z,12.25
2022-11-24T11:15:30.249Z,12.55
2022-11-24T11:18:00.092Z,14.75
2022-11-24T11:20:32.694Z,11.43
2022-11-24T11:23:06.293Z,11.77
2022-11-24T11:25:38.411Z,11.75
2022-11-24T11:28:23.411Z,11.25
2022-11-24T11:31:18.430Z,12.30
2022-11-24T11:34:09.569Z,10.93
2022-11-24T11:36:46.090Z,13.32
2022-11-24T11:39:26.673Z,9.13
2022-11-24T11:42:07.673Z,10.45
2022-11-24T11:44:41.432Z,10.15
2022-11-24T11:47:23.371Z,9.05
2022-11-24T11:49:52.270Z,10.38
2022-11-24T11:52:45.180Z,8.50
2022-11-24T11:55:30.719Z,10.20
2022-11-24T11:58:14.899Z,10.23
2022-11-24T12:00:49.960Z,10.07
2022-11-24T12:03:35.392Z,9.27
2022-11-24T12:06:20.539Z,10.80
2022-11-24T12:11:56.362Z,12.50
2022-11-24T12:14:39.401Z,12.45
2022-11-24T12:17:15.691Z,11.70
2022-11-24T12:20:02.927Z,10.98
2022-11-24T12:22:42.814Z,15.38
2022-11-24T12:25:24.755Z,10.20
2022-11-24T12:28:04.057Z,9.10
2022-11-24T12:30:43.970Z,7.43
2022-11-24T12:33:38.857Z,10.10
2022-11-24T12:36:18.456Z,8.98
2022-11-24T12:38:55.676Z,9.80
2022-11-24T12:41:42.751Z,8.95
2022-11-24T12:44:24.811Z,7.82
2022-11-24T12:47:04.317Z,9.43
2022-11-24T12:49:41.256Z,9.85
2022-11-24T12:52:21.074Z,9.93
2022-11-24T12:54:49.708Z,9.50
2022-11-24T12:57:22.686Z,8.80
2022-11-24T12:59:59.018Z,9.20
2022-11-24T13:02:42.832Z,8.10
2022-11-24T13:05:23.256Z,8.75
2022-11-24T13:07:59.604Z,8.68
2022-11-24T13:10:54.098Z,9.25
2022-11-24T13:13:19.718Z,9.18
2022-11-24T13:16:59.249Z,10.30
2022-11-24T13:19:10.643Z,10.30
2022-11-24T13:22:17.056Z,9.35
2022-11-24T13:24:46.300Z,9.95
2022-11-24T13:27:29.789Z,12.20
2022-11-24T13:29:58.333Z,9.85
2022-11-24T13:33:01.831Z,11.45
2022-11-24T13:35:31.939Z,7.70
2022-11-24T13:38:00.608Z,10.98
2022-11-24T13:40:59.868Z,11.02
2022-11-24T13:43:33.333Z,8.63
2022-11-24T13:46:03.998Z,9.73
2022-11-24T13:49:02.248Z,9.32
2022-11-24T13:51:32.268Z,9.25
2022-11-24T13:54:02.119Z,9.40
2022-11-24T13:56:32.458Z,11.38
2022-11-24T13:59:18.948Z,10.83
2022-11-24T14:01:58.665Z,9.90
2022-11-24T14:04:30.977Z,11.02
2022-11-24T14:07:09.012Z,12.27
2022-11-24T14:09:44.759Z,9.60
2022-11-24T14:12:17.191Z,11.40
2022-11-24T14:14:47.248Z,11.23
2022-11-24T14:17:23.230Z,11.25
2022-11-24T14:19:53.812Z,10.75
2022-11-24T14:22:28.901Z,11.27
2022-11-24T14:24:59.127Z,12.60
2022-11-24T14:27:31.466Z,12.63
2022-11-24T14:30:02.129Z,10.13
2022-11-24T14:32:33.569Z,12.82
2022-11-24T14:35:02.462Z,11.80
2022-11-24T14:37:32.466Z,11.75
2022-11-24T14:40:01.186Z,11.35
2022-11-24T14:42:29.788Z,10.88
2022-11-24T14:45:00.218Z,15.27
2022-11-24T14:47:32.432Z,11.85
2022-11-24T14:50:13.950Z,14.05
2022-11-24T14:57:57.270Z,9.80
2022-11-24T15:00:31.408Z,11.55
2022-11-24T15:03:16.227Z,12.93
2022-11-24T15:05:56.496Z,14.73
2022-11-24T15:08:27.826Z,12.37
2022-11-24T15:11:01.817Z,13.32
2022-11-24T15:13:35.128Z,13.50
2022-11-24T15:16:07.860Z,14.10
2022-11-24T15:18:43.814Z,13.30
2022-11-24T15:21:18.961Z,14.02
2022-11-24T15:24:07.711Z,14.32
2022-11-24T15:26:41.615Z,14.23
2022-11-24T15:29:11.570Z,15.30
2022-11-24T15:31:40.515Z,12.68
2022-11-24T15:34:11.086Z,13.02
2022-11-24T15:36:42.010Z,13.13
2022-11-24T15:39:12.058Z,12.40
2022-11-24T15:41:42.159Z,14.38
2022-11-24T15:44:11.609Z,12.48
2022-11-24T15:46:40.191Z,15.18
2022-11-24T15:49:08.791Z,12.57
2022-11-24T15:51:39.671Z,14.40
2022-11-24T15:54:15.035Z,14.32
2022-11-24T15:56:44.691Z,16.33
2022-11-24T15:59:20.224Z,12.60
2022-11-24T16:01:50.914Z,14.95
2022-11-24T16:04:19.652Z,16.65
2022-11-24T16:06:48.231Z,15.20
2022-11-24T16:09:18.595Z,13.95
2022-11-24T16:11:47.057Z,14.30
2022-11-24T16:14:15.767Z,14.50
2022-11-24T16:16:44.348Z,14.85
2022-11-24T16:19:13.269Z,13.80
2022-11-24T16:21:41.715Z,13.88
2022-11-24T16:24:10.653Z,15.15
2022-11-24T16:26:40.717Z,15.85
2022-11-24T16:29:09.357Z,14.60
2022-11-24T16:31:38.156Z,15.23
2022-11-24T16:34:06.878Z,13.52
2022-11-24T16:36:35.456Z,13.55
2022-11-24T16:39:04.037Z,14.70
2022-11-24T16:41:32.858Z,14.20
2022-11-24T16:44:03.331Z,14.52
2022-11-24T16:46:31.828Z,13.27
2022-11-24T16:49:01.729Z,14.63
2022-11-24T16:51:34.775Z,14.57
2022-11-24T16:54:05.552Z,13.90
2022-11-24T16:56:34.176Z,14.55
2022-11-24T16:59:04.575Z,13.75
2022-11-24T17:01:34.786Z,15.80
2022-11-24T17:04:07.016Z,12.43
2022-11-24T17:06:41.111Z,14.48
2022-11-24T17:09:11.844Z,14.43
2022-11-24T17:11:41.774Z,14.52
2022-11-24T17:14:12.709Z,14.27
2022-11-24T17:16:41.560Z,15.88
2022-11-24T17:19:10.718Z,14.00
2022-11-24T17:21:40.880Z,16.17
2022-11-24T17:24:18.276Z,15.45
2022-11-24T17:26:49.273Z,16.52
2022-11-24T17:29:21.200Z,16.15
2022-11-24T17:31:51.513Z,14.32
2022-11-24T17:34:22.960Z,13.77
2022-11-24T17:36:52.571Z,14.15
2022-11-24T17:39:24.728Z,15.45
2022-11-24T17:41:54.692Z,11.77
2022-11-24T17:44:27.905Z,14.55
2022-11-24T17:47:03.926Z,12.10
2022-11-24T17:49:33.998Z,12.13
2022-11-24T17:52:04.027Z,12.50
2022-11-24T17:54:46.279Z,13.77
2022-11-24T17:57:16.306Z,12.75
2022-11-24T17:59:47.292Z,12.10
2022-11-24T18:04:45.340Z,15.43
2022-11-24T18:07:13.857Z,14.50
2022-11-24T18:09:43.092Z,13.27
2022-11-24T18:12:11.862Z,13.73
2022-11-24T18:14:40.592Z,12.88
2022-11-24T18:17:11.869Z,12.57
2022-11-24T18:19:41.341Z,14.43
2022-11-24T18:22:11.318Z,13.73
2022-11-24T18:24:40.466Z,12.88
2022-11-24T18:27:09.502Z,12.65
2022-11-24T18:29:38.405Z,12.45
2022-11-24T18:32:07.871Z,15.90
2022-11-24T18:34:38.570Z,13.38
2022-11-24T18:37:08.853Z,11.35
2022-11-24T18:39:43.151Z,13.15
2022-11-24T18:42:12.373Z,11.90
2022-11-24T18:44:43.694Z,15.98
2022-11-24T18:47:17.604Z,14.73
2022-11-24T18:49:51.283Z,12.85
2022-11-24T18:52:20.844Z,15.05
2022-11-24T18:54:50.888Z,12.20
2022-11-24T18:57:23.206Z,15.20
2022-11-24T18:59:53.127Z,13.48
2022-11-24T19:02:24.145Z,13.33
2022-11-24T19:05:00.286Z,13.00
2022-11-24T19:07:29.372Z,13.25
2022-11-24T19:10:00.151Z,14.38
2022-11-24T19:12:29.404Z,16.40
2022-11-24T19:14:58.152Z,13.00
2022-11-24T19:17:26.969Z,12.80
2022-11-24T19:19:57.555Z,15.80
2022-11-24T19:22:28.273Z,11.73
2022-11-24T19:24:57.257Z,13.18
2022-11-24T19:27:26.934Z,13.38
2022-11-24T19:29:57.077Z,12.68
2022-11-24T19:32:29.354Z,14.57
2022-11-24T19:35:00.334Z,13.07
2022-11-24T19:37:30.496Z,14.10
2022-11-24T19:40:01.463Z,13.88
2022-11-24T19:42:31.227Z,14.07
2022-11-24T19:45:01.793Z,10.95
2022-11-24T19:47:32.034Z,11.98
2022-11-24T19:50:05.993Z,12.77
2022-11-24T19:52:38.826Z,13.05
2022-11-24T19:55:12.484Z,13.82
2022-11-24T19:57:41.448Z,13.18
2022-11-24T20:00:10.918Z,13.77
2022-11-24T20:02:39.498Z,14.55
2022-11-24T20:05:11.346Z,11.40
2022-11-24T20:07:42.474Z,12.40
2022-11-24T20:10:12.506Z,14.75
2022-11-24T20:12:41.667Z,11.48
2022-11-24T20:15:11.486Z,12.15
2022-11-24T20:17:40.164Z,12.18
2022-11-24T20:20:11.177Z,12.20
2022-11-24T20:22:39.718Z,13.07
2022-11-24T20:25:09.378Z,12.00
2022-11-24T20:27:38.003Z,12.35
2022-11-24T20:30:08.275Z,12.13
2022-11-24T20:32:36.983Z,13.37
2022-11-24T20:35:06.084Z,12.48
2022-11-24T20:37:36.201Z,13.63
2022-11-24T20:40:05.285Z,13.65
2022-11-24T20:42:35.682Z,13.10
2022-11-24T20:45:04.781Z,13.82
2022-11-24T20:47:33.248Z,12.32
2022-11-24T20:50:01.949Z,12.73
2022-11-24T20:52:30.445Z,12.73
2022-11-24T20:55:03.915Z,14.55
2022-11-24T20:57:32.544Z,12.15
2022-11-24T21:00:01.278Z,14.95
2022-11-24T21:02:31.274Z,12.68
2022-11-24T21:05:02.012Z,15.52
2022-11-24T21:07:33.717Z,12.35
2022-11-24T21:10:06.482Z,14.73
2022-11-24T21:12:36.622Z,14.18
2022-11-24T21:15:08.462Z,10.73
2022-11-24T21:17:41.062Z,13.80
2022-11-24T21:20:13.924Z,14.55
2022-11-24T21:22:43.764Z,13.27
2022-11-24T21:25:15.542Z,14.10
2022-11-24T21:27:45.044Z,14.52
2022-11-24T21:30:17.884Z,12.73
2022-11-24T21:32:54.503Z,13.52
2022-11-24T21:35:24.084Z,13.88
2022-11-24T21:37:54.394Z,12.32
2022-11-24T21:40:26.174Z,12.98
2022-11-24T21:42:55.898Z,11.88
2022-11-24T21:45:26.192Z,13.65
2022-11-24T21:48:00.195Z,12.85
2022-11-24T21:50:29.264Z,15.10
2022-11-24T21:53:03.228Z,14.38
2022-11-24T21:55:33.819Z,11.55
2022-11-24T21:58:02.586Z,14.10
2022-11-24T22:00:34.368Z,12.70
2022-11-24T22:03:03.250Z,12.30
2022-11-24T22:05:32.072Z,14.15
2022-11-24T22:08:03.729Z,12.30
2022-11-24T22:10:38.098Z,14.57
2022-11-24T22:13:07.900Z,15.48
2022-11-24T22:15:36.735Z,14.07
2022-11-24T22:18:05.719Z,12.85
2022-11-24T22:20:34.622Z,17.77
2022-11-24T22:23:03.881Z,13.10
2022-11-24T22:25:32.810Z,13.57
2022-11-24T22:28:03.272Z,17.70
2022-11-24T22:30:32.344Z,16.13
2022-11-24T22:33:01.283Z,15.45
2022-11-24T22:35:30.281Z,13.43
2022-11-24T22:37:59.214Z,12.20
2022-11-24T22:40:28.902Z,12.02
2022-11-24T22:42:59.483Z,14.13
2022-11-24T22:45:29.924Z,14.55
2022-11-24T22:47:58.862Z,14.93
2022-11-24T22:50:27.738Z,14.43
2022-11-24T22:53:00.362Z,14.23
2022-11-24T22:55:29.187Z,13.95
2022-11-24T22:57:58.097Z,14.65
2022-11-24T23:00:32.041Z,12.98
2022-11-24T23:03:00.994Z,19.38
2022-11-24T23:05:29.940Z,13.60
2022-11-24T23:07:58.791Z,14.27
2022-11-24T23:10:27.234Z,14.02
2022-11-24T23:12:57.131Z,14.65
2022-11-24T23:15:25.653Z,14.25
2022-11-24T23:17:55.673Z,12.48
2022-11-24T23:20:24.312Z,12.32
2022-11-24T23:22:56.151Z,13.73
2022-11-24T23:25:24.728Z,13.30
2022-11-24T23:27:53.304Z,15.18
2022-11-24T23:30:21.770Z,13.82
2022-11-24T23:32:50.419Z,16.45
2022-11-24T23:35:20.454Z,13.48
2022-11-24T23:38:07.935Z,11.23
2022-11-24T23:40:37.303Z,14.23
2022-11-24T23:43:05.858Z,10.45
2022-11-24T23:45:34.454Z,12.52
2022-11-24T23:48:03.096Z,11.57
2022-11-24T23:50:33.167Z,14.25
2022-11-24T23:53:01.657Z,11.98
2022-11-24T23:55:30.145Z,12.52
2022-11-24T23:57:58.748Z,13.82
